createdAt,value
2019-01-22T00:01:43.331Z,133.07
2019-01-22T00:04:13.272Z,138.23
2019-01-22T00:06:42.954Z,162.60
2019-01-22T00:09:12.538Z,155.07
2019-01-22T00:11:41.992Z,154.00
2019-01-22T00:14:12.213Z,161.67
2019-01-22T00:16:41.778Z,157.23
2019-01-22T00:19:11.389Z,156.33
2019-01-22T00:21:41.647Z,177.60
2019-01-22T00:24:11.766Z,160.30
2019-01-22T00:26:41.590Z,150.73
2019-01-22T00:29:11.157Z,152.10
2019-01-22T00:31:41.149Z,154.67
2019-01-22T00:34:10.865Z,169.50
2019-01-22T00:36:40.493Z,181.03
2019-01-22T00:39:10.508Z,151.47
2019-01-22T00:41:40.389Z,154.50
2019-01-22T00:44:10.230Z,182.80
2019-01-22T00:46:40.225Z,190.40
2019-01-22T00:49:10.025Z,166.00
2019-01-22T00:51:39.689Z,173.13
2019-01-22T00:54:09.748Z,180.53
2019-01-22T00:56:40.597Z,160.87
2019-01-22T00:59:10.354Z,195.10
2019-01-22T01:01:40.506Z,186.27
2019-01-22T01:04:10.112Z,217.80
2019-01-22T01:06:40.290Z,196.97
2019-01-22T01:09:10.248Z,203.27
2019-01-22T01:11:40.142Z,194.57
2019-01-22T01:14:09.801Z,189.77
2019-01-22T01:16:39.514Z,196.93
2019-01-22T01:19:09.713Z,210.20
2019-01-22T01:21:39.746Z,194.77
2019-01-22T01:24:09.721Z,206.70
2019-01-22T01:26:39.525Z,196.60
2019-01-22T01:29:09.193Z,202.53
2019-01-22T01:31:38.781Z,216.43
2019-01-22T01:34:08.872Z,207.87
2019-01-22T01:36:38.519Z,208.40
2019-01-22T01:39:08.502Z,193.83
2019-01-22T01:41:38.213Z,218.13
2019-01-22T01:44:07.994Z,190.87
2019-01-22T01:46:37.969Z,194.03
2019-01-22T01:49:07.627Z,193.73
2019-01-22T01:51:38.021Z,186.17
2019-01-22T01:54:08.448Z,177.80
2019-01-22T01:56:38.178Z,182.57
2019-01-22T01:59:08.136Z,164.00
2019-01-22T02:01:39.054Z,167.70
2019-01-22T02:04:08.572Z,166.47
2019-01-22T02:06:38.197Z,148.60
2019-01-22T02:09:07.870Z,153.97
2019-01-22T02:11:37.585Z,150.83
2019-01-22T02:14:07.445Z,135.73
2019-01-22T02:16:49.248Z,147.57
2019-01-22T02:19:22.121Z,134.63
2019-01-22T02:21:58.077Z,136.53
2019-01-22T02:24:30.758Z,128.67
2019-01-22T02:27:12.178Z,124.97
2019-01-22T02:30:18.493Z,117.90
2019-01-22T02:32:57.348Z,117.87
2019-01-22T02:35:29.894Z,111.13
2019-01-22T02:38:02.114Z,103.40
2019-01-22T02:40:34.589Z,96.00
2019-01-22T02:43:35.642Z,104.53
2019-01-22T02:46:11.653Z,103.47
2019-01-22T02:48:53.235Z,95.30
2019-01-22T02:51:40.670Z,97.30
2019-01-22T02:54:12.320Z,92.40
2019-01-22T02:56:47.708Z,80.03
2019-01-22T02:59:32.404Z,94.43
2019-01-22T03:02:05.237Z,87.97
2019-01-22T03:04:46.685Z,100.07
2019-01-22T03:07:28.369Z,90.77
2019-01-22T03:10:12.820Z,88.13
2019-01-22T03:13:09.266Z,89.17
2019-01-22T03:16:14.902Z,88.50
2019-01-22T03:19:05.619Z,85.93
2019-01-22T03:21:46.601Z,84.70
2019-01-22T03:24:24.523Z,83.93
2019-01-22T03:27:09.011Z,82.87
2019-01-22T03:30:00.035Z,81.40
2019-01-22T03:32:47.699Z,87.73
2019-01-22T03:35:29.549Z,90.97
2019-01-22T03:38:26.124Z,82.00
2019-01-22T03:41:34.335Z,85.43
2019-01-22T03:44:23.296Z,77.83
2019-01-22T03:47:08.342Z,76.80
2019-01-22T03:49:40.455Z,79.90
2019-01-22T03:52:15.557Z,74.50
2019-01-22T03:54:53.483Z,71.83
2019-01-22T03:57:29.586Z,73.47
2019-01-22T03:59:59.566Z,69.83
2019-01-22T04:02:30.120Z,73.37
2019-01-22T04:04:59.753Z,66.43
2019-01-22T04:07:30.853Z,64.13
2019-01-22T04:10:00.905Z,65.30
2019-01-22T04:12:30.754Z,63.23
2019-01-22T04:15:00.864Z,59.83
2019-01-22T04:17:30.702Z,53.07
2019-01-22T04:20:00.485Z,56.47
2019-01-22T04:22:32.526Z,61.20
2019-01-22T04:25:05.194Z,55.67
2019-01-22T04:27:49.570Z,56.30
2019-01-22T04:30:40.966Z,63.23
2019-01-22T04:33:25.466Z,62.37
2019-01-22T04:35:57.902Z,68.93
2019-01-22T04:39:05.497Z,65.13
2019-01-22T04:41:58.357Z,72.70
2019-01-22T04:44:39.245Z,74.20
2019-01-22T04:47:14.752Z,66.23
2019-01-22T04:50:19.850Z,66.40
2019-01-22T04:53:01.201Z,66.83
2019-01-22T04:55:48.141Z,71.90
2019-01-22T04:58:23.189Z,70.17
2019-01-22T05:01:04.433Z,68.60
2019-01-22T05:03:39.409Z,66.80
2019-01-22T05:06:23.728Z,78.97
2019-01-22T05:09:15.273Z,67.03
2019-01-22T05:11:47.472Z,71.30
2019-01-22T05:14:22.480Z,74.07
2019-01-22T05:17:09.528Z,72.87
2019-01-22T05:19:41.778Z,79.07
2019-01-22T05:22:30.473Z,75.57
2019-01-22T05:25:05.657Z,69.97
2019-01-22T05:27:43.561Z,79.40
2019-01-22T05:30:36.853Z,72.63
2019-01-22T05:33:30.405Z,74.63
2019-01-22T05:36:05.750Z,64.67
2019-01-22T05:38:50.245Z,69.03
2019-01-22T05:41:47.508Z,71.07
2019-01-22T05:44:31.693Z,88.17
2019-01-22T05:47:04.030Z,75.93
2019-01-22T05:50:12.305Z,69.37
2019-01-22T05:53:09.823Z,69.97
2019-01-22T05:55:44.741Z,70.13
2019-01-22T05:58:19.891Z,70.90
2019-01-22T06:00:52.157Z,67.33
2019-01-22T06:03:36.504Z,68.10
2019-01-22T06:06:14.197Z,75.93
2019-01-22T06:08:55.679Z,69.87
2019-01-22T06:11:50.699Z,72.43
2019-01-22T06:14:40.113Z,71.50
2019-01-22T06:17:27.729Z,71.30
2019-01-22T06:20:27.754Z,64.23
2019-01-22T06:23:20.735Z,69.07
2019-01-22T06:26:05.084Z,64.23
2019-01-22T06:29:02.615Z,67.70
2019-01-22T06:31:51.222Z,87.57
2019-01-22T06:34:39.566Z,76.67
2019-01-22T06:37:20.872Z,74.60
2019-01-22T06:40:04.997Z,70.43
2019-01-22T06:42:46.162Z,71.50
2019-01-22T06:45:42.854Z,80.07
2019-01-22T06:48:15.985Z,79.13
2019-01-22T06:50:56.824Z,88.97
2019-01-22T06:53:40.867Z,84.43
2019-01-22T06:56:13.649Z,83.90
2019-01-22T06:58:46.469Z,101.03
2019-01-22T07:01:43.930Z,80.90
2019-01-22T07:04:16.443Z,85.60
2019-01-22T07:07:17.177Z,99.53
2019-01-22T07:10:13.046Z,96.13
2019-01-22T07:12:51.964Z,92.10
2019-01-22T07:15:45.170Z,96.13
2019-01-22T07:18:32.475Z,95.27
2019-01-22T07:21:27.632Z,90.33
2019-01-22T07:24:15.442Z,85.23
2019-01-22T07:26:59.835Z,92.40
2019-01-22T07:29:56.752Z,91.57
2019-01-22T07:32:34.901Z,86.03
2019-01-22T07:35:24.935Z,92.67
2019-01-22T07:38:03.480Z,97.60
2019-01-22T07:40:50.489Z,91.20
2019-01-22T07:43:23.261Z,103.90
2019-01-22T07:46:11.737Z,102.40
2019-01-22T07:48:50.022Z,93.10
2019-01-22T07:51:34.804Z,89.67
2019-01-22T07:54:16.091Z,101.87
2019-01-22T07:56:51.212Z,102.27
2019-01-22T07:59:26.364Z,116.43
2019-01-22T08:02:08.472Z,100.23
2019-01-22T08:04:51.539Z,103.50
2019-01-22T08:07:34.677Z,97.90
2019-01-22T08:10:29.229Z,91.07
2019-01-22T08:13:11.557Z,95.87
2019-01-22T08:15:47.971Z,82.93
2019-01-22T08:18:27.034Z,82.00
2019-01-22T08:21:13.136Z,72.53
2019-01-22T08:23:51.505Z,72.23
2019-01-22T08:26:29.403Z,74.03
2019-01-22T08:29:26.074Z,69.90
2019-01-22T08:32:01.491Z,68.73
2019-01-22T08:34:54.743Z,65.40
2019-01-22T08:37:41.837Z,65.40
2019-01-22T08:40:17.448Z,62.53
2019-01-22T08:42:49.577Z,62.67
2019-01-22T08:45:27.733Z,60.13
2019-01-22T08:48:14.652Z,59.93
2019-01-22T08:50:46.846Z,57.60
2019-01-22T08:53:18.995Z,55.50
2019-01-22T08:55:53.775Z,54.57
2019-01-22T08:58:42.883Z,57.83
2019-01-22T09:01:21.121Z,51.37
2019-01-22T09:04:09.758Z,48.97
2019-01-22T09:06:53.734Z,46.20
2019-01-22T09:09:25.867Z,46.27
2019-01-22T09:12:04.156Z,48.83
2019-01-22T09:14:36.456Z,46.50
2019-01-22T09:17:09.365Z,46.93
2019-01-22T09:19:47.173Z,46.57
2019-01-22T09:22:40.276Z,44.17
2019-01-22T09:25:14.818Z,46.07
2019-01-22T09:28:01.433Z,43.70
2019-01-22T09:30:36.444Z,42.07
2019-01-22T09:33:08.636Z,40.57
2019-01-22T09:36:06.569Z,43.80
2019-01-22T09:38:36.026Z,39.93
2019-01-22T09:41:05.576Z,43.57
2019-01-22T09:43:35.311Z,41.80
2019-01-22T09:46:04.852Z,40.17
2019-01-22T09:48:34.205Z,37.87
2019-01-22T09:51:03.995Z,39.63
2019-01-22T09:53:33.803Z,35.80
2019-01-22T09:56:03.149Z,41.53
2019-01-22T09:58:33.240Z,43.87
2019-01-22T10:01:02.692Z,38.83
2019-01-22T10:03:32.150Z,35.40
2019-01-22T10:06:02.203Z,34.13
2019-01-22T10:08:31.597Z,34.97
2019-01-22T10:11:01.884Z,34.10
2019-01-22T10:13:31.553Z,32.20
2019-01-22T10:16:00.924Z,35.53
2019-01-22T10:18:31.505Z,32.57
2019-01-22T10:21:00.902Z,35.67
2019-01-22T10:23:30.337Z,35.83
2019-01-22T10:26:00.012Z,33.70
2019-01-22T10:28:29.389Z,31.23
2019-01-22T10:30:58.752Z,31.90
2019-01-22T10:33:28.460Z,31.47
2019-01-22T10:36:05.501Z,33.03
2019-01-22T10:38:35.088Z,30.27
2019-01-22T10:41:04.862Z,37.00
2019-01-22T10:43:34.245Z,30.83
2019-01-22T10:46:03.705Z,32.13
2019-01-22T10:48:34.703Z,31.20
2019-01-22T10:51:05.398Z,37.27
2019-01-22T10:53:35.245Z,29.03
2019-01-22T10:56:04.794Z,27.40
2019-01-22T10:58:34.279Z,34.50
2019-01-22T11:01:04.000Z,32.60
2019-01-22T11:03:33.345Z,32.00
2019-01-22T11:06:02.851Z,31.60
2019-01-22T11:08:32.810Z,32.70
2019-01-22T11:11:16.008Z,34.33
2019-01-22T11:13:54.174Z,34.07
2019-01-22T11:16:23.826Z,32.30
2019-01-22T11:18:53.165Z,34.87
2019-01-22T11:21:23.763Z,35.03
2019-01-22T11:23:54.825Z,33.50
2019-01-22T11:26:24.281Z,35.30
2019-01-22T11:28:53.725Z,34.70
2019-01-22T11:31:23.485Z,32.83
2019-01-22T11:33:52.933Z,38.53
2019-01-22T11:36:22.385Z,34.40
2019-01-22T11:38:51.934Z,38.07
2019-01-22T11:41:21.402Z,36.37
2019-01-22T11:43:50.741Z,34.97
2019-01-22T11:46:20.127Z,36.83
2019-01-22T11:48:49.573Z,35.13
2019-01-22T11:51:19.160Z,36.30
2019-01-22T11:53:48.536Z,33.87
2019-01-22T11:56:17.889Z,36.60
2019-01-22T11:58:47.617Z,33.87
2019-01-22T12:01:17.125Z,34.10
2019-01-22T12:03:46.476Z,35.30
2019-01-22T12:06:15.829Z,32.67
2019-01-22T12:08:45.219Z,32.67
2019-01-22T12:11:14.685Z,31.07
2019-01-22T12:13:44.046Z,30.53
2019-01-22T12:16:13.418Z,36.13
2019-01-22T12:18:42.832Z,28.57
2019-01-22T12:21:12.281Z,32.83
2019-01-22T12:23:42.605Z,39.27
2019-01-22T12:26:12.115Z,29.37
2019-01-22T12:28:41.829Z,29.83
2019-01-22T12:31:11.261Z,29.87
2019-01-22T12:33:40.609Z,30.03
2019-01-22T12:36:09.961Z,30.47
2019-01-22T12:38:39.446Z,27.70
2019-01-22T12:41:10.037Z,31.67
2019-01-22T12:43:43.878Z,30.47
2019-01-22T12:46:14.531Z,31.77
2019-01-22T12:48:52.527Z,31.77
2019-01-22T12:51:28.258Z,26.20
2019-01-22T12:53:59.724Z,30.23
2019-01-22T12:56:29.088Z,26.80
2019-01-22T12:58:59.566Z,26.67
2019-01-22T13:01:29.312Z,29.90
2019-01-22T13:04:02.377Z,30.17
2019-01-22T13:06:33.552Z,26.87
2019-01-22T13:09:06.384Z,25.83
2019-01-22T13:11:36.653Z,26.10
2019-01-22T13:14:07.753Z,28.07
2019-01-22T13:16:37.413Z,23.73
2019-01-22T13:19:07.029Z,23.53
2019-01-22T13:21:36.641Z,25.30
2019-01-22T13:24:06.129Z,25.70
2019-01-22T13:26:37.957Z,21.90
2019-01-22T13:29:07.959Z,23.03
2019-01-22T13:31:37.489Z,23.77
2019-01-22T13:34:07.239Z,19.57
2019-01-22T13:36:36.969Z,23.03
2019-01-22T13:39:08.760Z,24.63
2019-01-22T13:41:38.206Z,20.43
2019-01-22T13:44:07.686Z,21.50
2019-01-22T13:46:37.393Z,21.37
2019-01-22T13:49:07.447Z,21.27
2019-01-22T13:51:37.929Z,20.93
2019-01-22T13:54:07.721Z,21.53
2019-01-22T13:56:37.165Z,18.60
2019-01-22T13:59:12.081Z,20.67
2019-01-22T14:01:41.991Z,21.90
2019-01-22T14:04:11.390Z,21.90
2019-01-22T14:06:40.885Z,23.03
2019-01-22T14:09:10.346Z,23.43
2019-01-22T14:11:44.453Z,28.27
2019-01-22T14:14:13.928Z,25.27
2019-01-22T14:16:43.461Z,88.67
2019-01-22T14:19:12.909Z,26.53
2019-01-22T14:21:42.441Z,28.67
2019-01-22T14:24:12.101Z,29.10
2019-01-22T14:26:41.455Z,26.03
2019-01-22T14:29:12.080Z,22.70
2019-01-22T14:31:42.763Z,26.13
2019-01-22T14:34:13.614Z,23.23
2019-01-22T14:36:44.100Z,25.10
2019-01-22T14:39:13.706Z,30.47
2019-01-22T14:41:43.162Z,26.07
2019-01-22T14:44:13.082Z,32.10
2019-01-22T14:46:42.459Z,25.87
2019-01-22T14:49:11.894Z,27.33
2019-01-22T14:51:41.381Z,24.67
2019-01-22T14:54:10.838Z,22.87
2019-01-22T14:56:40.678Z,25.73
2019-01-22T14:59:10.066Z,26.77
2019-01-22T15:01:41.919Z,24.20
2019-01-22T15:04:11.814Z,27.33
2019-01-22T15:06:41.537Z,25.23
2019-01-22T15:09:11.630Z,24.87
2019-01-22T15:11:42.077Z,24.77
2019-01-22T15:14:12.139Z,26.73
2019-01-22T15:16:42.235Z,28.17
2019-01-22T15:19:12.051Z,29.20
2019-01-22T15:21:41.433Z,24.80
2019-01-22T15:24:10.903Z,30.03
2019-01-22T15:26:40.269Z,27.80
2019-01-22T15:29:09.654Z,38.43
2019-01-22T15:31:39.948Z,28.40
2019-01-22T15:34:09.428Z,31.63
2019-01-22T15:36:38.905Z,32.33
2019-01-22T15:39:09.909Z,35.87
2019-01-22T15:41:39.757Z,28.43
2019-01-22T15:44:09.113Z,27.83
2019-01-22T15:46:38.586Z,27.03
2019-01-22T15:49:08.677Z,31.03
2019-01-22T15:51:38.165Z,31.90
2019-01-22T15:54:07.516Z,26.77
2019-01-22T15:56:37.370Z,28.20
2019-01-22T15:59:06.757Z,30.73
2019-01-22T16:01:36.209Z,31.30
2019-01-22T16:04:05.863Z,28.50
2019-01-22T16:06:35.344Z,29.27
2019-01-22T16:09:06.873Z,29.17
2019-01-22T16:11:36.320Z,28.80
2019-01-22T16:14:05.811Z,28.57
2019-01-22T16:16:35.686Z,29.23
2019-01-22T16:19:05.017Z,28.33
2019-01-22T16:21:37.580Z,25.77
2019-01-22T16:24:07.165Z,26.00
2019-01-22T16:26:36.585Z,24.67
2019-01-22T16:29:09.556Z,25.43
2019-01-22T16:31:39.819Z,22.90
2019-01-22T16:34:24.539Z,23.27
2019-01-22T16:36:54.418Z,23.50
2019-01-22T16:39:28.998Z,27.40
2019-01-22T16:41:56.567Z,22.63
2019-01-22T16:44:26.024Z,23.40
2019-01-22T16:46:55.818Z,21.10
2019-01-22T16:49:25.195Z,23.80
2019-01-22T16:51:54.621Z,24.93
2019-01-22T16:54:25.782Z,20.77
2019-01-22T16:57:00.473Z,21.87
2019-01-22T16:59:30.045Z,25.53
2019-01-22T17:01:59.520Z,23.83
2019-01-22T17:04:28.979Z,25.83
2019-01-22T17:06:58.920Z,23.07
2019-01-22T17:09:28.440Z,25.60
2019-01-22T17:11:57.877Z,34.87
2019-01-22T17:14:27.655Z,24.03
2019-01-22T17:16:57.044Z,23.30
2019-01-22T17:19:26.526Z,23.30
2019-01-22T17:21:55.983Z,25.17
2019-01-22T17:24:25.397Z,25.37
2019-01-22T17:26:54.902Z,22.57
2019-01-22T17:29:24.377Z,24.93
2019-01-22T17:32:04.562Z,24.37
2019-01-22T17:34:34.236Z,24.83
2019-01-22T17:37:04.905Z,26.53
2019-01-22T17:39:34.561Z,21.87
2019-01-22T17:42:04.022Z,22.93
2019-01-22T17:44:33.769Z,25.20
2019-01-22T17:47:03.317Z,24.33
2019-01-22T17:49:32.768Z,24.63
2019-01-22T17:52:02.336Z,23.50
2019-01-22T17:54:31.742Z,27.20
2019-01-22T17:57:01.539Z,27.80
2019-01-22T17:59:30.974Z,25.57
2019-01-22T18:02:00.453Z,25.40
2019-01-22T18:04:29.922Z,23.70
2019-01-22T18:07:00.436Z,24.13
2019-01-22T18:09:29.925Z,23.70
2019-01-22T18:11:59.390Z,28.27
2019-01-22T18:14:29.098Z,26.87
2019-01-22T18:16:58.585Z,25.30
2019-01-22T18:19:27.950Z,25.07
2019-01-22T18:21:57.501Z,30.43
2019-01-22T18:24:27.014Z,28.27
2019-01-22T18:26:56.849Z,21.40
2019-01-22T18:29:26.306Z,27.47
2019-01-22T18:31:55.827Z,26.00
2019-01-22T18:34:25.281Z,24.90
2019-01-22T18:36:54.738Z,30.80
2019-01-22T18:39:25.628Z,25.97
2019-01-22T18:41:54.985Z,30.37
2019-01-22T18:44:24.554Z,33.47
2019-01-22T18:46:54.068Z,30.23
2019-01-22T18:49:23.532Z,27.57
2019-01-22T18:51:53.023Z,25.87
2019-01-22T18:54:22.559Z,30.53
2019-01-22T18:57:07.325Z,29.27
2019-01-22T18:59:36.832Z,39.03
2019-01-22T19:02:06.289Z,31.27
2019-01-22T19:07:22.359Z,35.40
2019-01-22T19:09:52.034Z,30.50
2019-01-22T19:12:22.032Z,30.77
2019-01-22T19:14:51.389Z,29.67
2019-01-22T19:17:20.781Z,34.13
2019-01-22T19:19:50.242Z,32.90
2019-01-22T19:22:19.798Z,30.83
2019-01-22T19:24:49.322Z,29.33
2019-01-22T19:27:19.147Z,30.60
2019-01-22T19:29:48.859Z,31.60
2019-01-22T19:32:18.451Z,33.33
2019-01-22T19:34:47.811Z,34.10
2019-01-22T19:37:17.344Z,33.43
2019-01-22T19:39:47.016Z,31.27
2019-01-22T19:42:18.464Z,32.77
2019-01-22T19:44:47.857Z,35.00
2019-01-22T19:47:17.618Z,35.23
2019-01-22T19:49:47.087Z,34.93
2019-01-22T19:52:35.358Z,33.17
2019-01-22T19:55:05.764Z,33.30
2019-01-22T19:57:40.941Z,37.03
2019-01-22T20:00:17.995Z,34.73
2019-01-22T20:02:47.361Z,35.40
2019-01-22T20:05:17.364Z,35.50
2019-01-22T20:07:46.756Z,34.03
2019-01-22T20:10:19.345Z,36.00
2019-01-22T20:12:49.085Z,38.33
2019-01-22T20:15:21.093Z,36.53
2019-01-22T20:17:50.871Z,34.80
2019-01-22T20:20:20.976Z,35.83
2019-01-22T20:22:52.798Z,33.93
2019-01-22T20:25:23.578Z,36.23
2019-01-22T20:27:53.363Z,33.87
2019-01-22T20:30:35.667Z,37.17
2019-01-22T20:33:06.207Z,38.20
2019-01-22T20:35:37.776Z,39.53
2019-01-22T20:38:14.007Z,33.57
2019-01-22T20:40:43.928Z,35.33
2019-01-22T20:43:14.666Z,38.97
2019-01-22T20:45:46.353Z,37.10
2019-01-22T20:48:16.509Z,43.20
2019-01-22T20:50:46.682Z,42.10
2019-01-22T20:53:16.659Z,42.57
2019-01-22T20:55:46.510Z,39.97
2019-01-22T20:58:17.215Z,43.83
2019-01-22T21:00:47.008Z,40.10
2019-01-22T21:03:16.442Z,40.43
2019-01-22T21:05:46.302Z,40.60
2019-01-22T21:08:16.222Z,44.67
2019-01-22T21:10:45.666Z,43.70
2019-01-22T21:13:15.879Z,41.07
2019-01-22T21:15:45.385Z,42.90
2019-01-22T21:18:14.894Z,42.93
2019-01-22T21:20:44.242Z,42.80
2019-01-22T21:23:13.616Z,41.97
2019-01-22T21:25:43.392Z,40.43
2019-01-22T21:28:12.742Z,44.33
2019-01-22T21:30:42.802Z,48.13
2019-01-22T21:33:12.766Z,46.30
2019-01-22T21:35:42.840Z,44.40
2019-01-22T21:38:12.595Z,43.87
2019-01-22T21:40:42.075Z,43.83
2019-01-22T21:43:12.989Z,48.20
2019-01-22T21:45:43.942Z,48.60
2019-01-22T21:48:14.551Z,45.67
2019-01-22T21:50:44.352Z,44.90
2019-01-22T21:53:14.184Z,47.20
2019-01-22T21:55:44.387Z,49.40
2019-01-22T21:58:15.249Z,46.63
2019-01-22T22:00:45.996Z,48.73
2019-01-22T22:03:15.665Z,49.50
2019-01-22T22:05:45.734Z,48.77
2019-01-22T22:08:15.453Z,48.87
2019-01-22T22:10:45.278Z,48.07
2019-01-22T22:13:14.743Z,50.90
2019-01-22T22:15:44.130Z,48.80
2019-01-22T22:18:15.182Z,48.03
2019-01-22T22:20:45.152Z,53.07
2019-01-22T22:23:14.921Z,54.80
2019-01-22T22:25:45.164Z,52.77
2019-01-22T22:28:15.263Z,50.63
2019-01-22T22:30:45.200Z,49.10
2019-01-22T22:33:14.938Z,52.33
2019-01-22T22:35:44.593Z,54.30
2019-01-22T22:38:14.222Z,54.07
2019-01-22T22:40:44.056Z,51.30
2019-01-22T22:43:14.603Z,54.77
2019-01-22T22:45:44.904Z,51.97
2019-01-22T22:48:15.453Z,52.70
2019-01-22T22:50:45.412Z,55.80
2019-01-22T22:53:15.019Z,53.33
2019-01-22T22:55:44.982Z,53.90
2019-01-22T22:58:14.360Z,56.53
2019-01-22T23:00:52.861Z,53.07
2019-01-22T23:03:22.598Z,55.70
2019-01-22T23:05:52.072Z,51.90
2019-01-22T23:08:21.896Z,53.53
2019-01-22T23:10:51.275Z,58.67
2019-01-22T23:13:20.981Z,57.43
2019-01-22T23:15:50.896Z,55.63
2019-01-22T23:18:20.595Z,59.97
2019-01-22T23:20:50.276Z,59.60
2019-01-22T23:23:20.389Z,55.57
2019-01-22T23:25:50.269Z,54.57
2019-01-22T23:28:19.745Z,62.73
2019-01-22T23:30:49.616Z,54.77
2019-01-22T23:33:19.084Z,56.57
2019-01-22T23:35:48.760Z,59.53
2019-01-22T23:38:19.112Z,62.33
2019-01-22T23:40:48.601Z,57.87
2019-01-22T23:43:18.076Z,59.73
2019-01-22T23:45:47.897Z,62.03
2019-01-22T23:48:17.367Z,61.27
2019-01-22T23:50:47.870Z,62.63
2019-01-22T23:53:17.740Z,56.87
2019-01-22T23:55:47.208Z,61.63
2019-01-22T23:58:16.869Z,62.60
